Time;durP1;ratioP1;P1;durP2;ratioP2;P2;SDS_P1;SDS_P2;PMS_P1;PMS_P2;Temp;Humidity;BMP_temperature;BMP_pressure;BME280_temperature;BME280_humidity;BME280_pressure;Samples;Min_cycle;Max_cycle;Signal;HPM_P1;HPM_P2
2022/11/04 00:02:29;;;;;;;15.98;11.55;;;;;;;;;;9960371;29;20076;-70
2022/11/04 00:12:46;;;;;;;11.45;9.05;;;;;;;;;;9958285;29;20048;-70
2022/11/04 00:17:44;;;;;;;17.23;10.77;;;;;;;;;;9947453;29;20519;-69
2022/11/04 00:33:26;;;;;;;14.05;10.35;;;;;;;;;;9966255;29;20119;-70
2022/11/04 00:38:25;;;;;;;11.23;9.02;;;;;;;;;;9964838;29;20439;-70
2022/11/04 00:43:24;;;;;;;19.88;10.93;;;;;;;;;;9965053;29;20041;-70
2022/11/04 00:48:22;;;;;;;13.40;9.60;;;;;;;;;;9964936;29;20056;-69
2022/11/04 00:53:20;;;;;;;14.48;8.77;;;;;;;;;;9965441;29;20127;-69
2022/11/04 00:58:20;;;;;;;11.55;9.32;;;;;;;;;;9965068;29;20053;-69
2022/11/04 01:03:18;;;;;;;10.32;8.75;;;;;;;;;;9964970;29;20064;-70
2022/11/04 01:08:16;;;;;;;10.30;9.00;;;;;;;;;;9964874;29;20084;-70
2022/11/04 01:13:14;;;;;;;12.85;8.95;;;;;;;;;;9965364;29;20052;-71
2022/11/04 01:18:14;;;;;;;11.45;9.20;;;;;;;;;;9968822;29;20092;-70
2022/11/04 01:23:12;;;;;;;13.68;9.23;;;;;;;;;;9972653;29;20051;-70
2022/11/04 01:28:11;;;;;;;10.45;8.80;;;;;;;;;;9966565;29;20049;-70
2022/11/04 01:33:09;;;;;;;10.45;8.27;;;;;;;;;;9957613;29;20416;-70
2022/11/04 01:38:08;;;;;;;12.43;8.98;;;;;;;;;;9963398;29;20106;-70
2022/11/04 01:43:12;;;;;;;11.55;8.32;;;;;;;;;;9963151;29;20079;-71
2022/11/04 01:48:15;;;;;;;10.57;8.30;;;;;;;;;;9962350;29;20080;-69
2022/11/04 01:53:16;;;;;;;13.95;9.38;;;;;;;;;;9930831;29;20495;-70
2022/11/04 01:58:17;;;;;;;9.93;8.30;;;;;;;;;;9962654;29;20510;-70
2022/11/04 02:03:18;;;;;;;10.25;9.05;;;;;;;;;;9962608;29;20466;-71
2022/11/04 02:08:18;;;;;;;13.88;7.68;;;;;;;;;;9962822;29;20087;-69
2022/11/04 02:13:16;;;;;;;9.93;8.13;;;;;;;;;;9976065;29;20044;-71
2022/11/04 02:18:25;;;;;;;9.63;7.80;;;;;;;;;;9961040;29;20087;-70
2022/11/04 02:28:56;;;;;;;10.35;8.40;;;;;;;;;;10321844;27;20387;-70
2022/11/04 02:34:01;;;;;;;9.77;8.20;;;;;;;;;;10324067;28;20068;-70
2022/11/04 02:39:02;;;;;;;10.63;7.60;;;;;;;;;;10310491;28;20048;-70
2022/11/04 02:44:03;;;;;;;14.57;8.85;;;;;;;;;;10308846;28;20060;-69
2022/11/04 02:49:04;;;;;;;9.23;7.43;;;;;;;;;;10321606;28;20044;-70
2022/11/04 02:54:05;;;;;;;11.95;8.48;;;;;;;;;;10310268;28;20420;-69
2022/11/04 02:59:05;;;;;;;11.23;8.57;;;;;;;;;;10323665;28;20052;-69
2022/11/04 03:04:06;;;;;;;10.27;8.43;;;;;;;;;;10308590;28;20542;-69
2022/11/04 03:09:05;;;;;;;11.77;8.93;;;;;;;;;;10307975;28;20450;-70
2022/11/04 03:14:05;;;;;;;8.95;7.28;;;;;;;;;;10308944;28;20041;-69
2022/11/04 03:19:09;;;;;;;11.27;8.95;;;;;;;;;;10315979;28;20032;-70
2022/11/04 03:24:07;;;;;;;8.73;7.63;;;;;;;;;;10327369;28;20502;-69
2022/11/04 03:29:13;;;;;;;10.45;8.43;;;;;;;;;;10307924;28;20064;-70
2022/11/04 03:34:12;;;;;;;9.85;8.60;;;;;;;;;;10306959;28;20041;-70
2022/11/04 03:39:11;;;;;;;14.75;8.40;;;;;;;;;;10286247;28;20045;-70
2022/11/04 03:44:09;;;;;;;9.55;7.60;;;;;;;;;;10280339;28;20044;-68
2022/11/04 03:49:09;;;;;;;9.63;7.65;;;;;;;;;;10280510;28;20442;-70
2022/11/04 03:54:08;;;;;;;13.35;8.52;;;;;;;;;;10279755;28;20037;-70
2022/11/04 03:59:17;;;;;;;10.00;7.57;;;;;;;;;;10280488;28;20045;-70
2022/11/04 04:04:16;;;;;;;10.55;7.85;;;;;;;;;;10279543;28;20037;-69
2022/11/04 04:09:19;;;;;;;11.82;8.45;;;;;;;;;;10283958;28;20072;-70
2022/11/04 04:19:33;;;;;;;11.13;7.78;;;;;;;;;;10292679;28;20085;-70
2022/11/04 04:29:52;;;;;;;13.95;7.22;;;;;;;;;;10278464;28;20040;-68
2022/11/04 04:35:40;;;;;;;11.30;8.73;;;;;;;;;;10291716;28;20087;-70
2022/11/04 04:45:31;;;;;;;12.45;8.52;;;;;;;;;;10277047;28;20084;-69
2022/11/04 04:50:34;;;;;;;12.88;7.93;;;;;;;;;;10286758;28;20095;-70
2022/11/04 04:55:34;;;;;;;9.73;8.27;;;;;;;;;;10277333;28;20041;-70
2022/11/04 05:00:39;;;;;;;15.27;11.82;;;;;;;;;;10278547;28;20075;-69
2022/11/04 05:05:37;;;;;;;17.23;11.23;;;;;;;;;;10290571;28;20093;-69
2022/11/04 05:10:36;;;;;;;31.52;18.20;;;;;;;;;;10278889;28;20455;-69
2022/11/04 05:15:35;;;;;;;19.88;13.45;;;;;;;;;;10280582;28;20084;-68
2022/11/04 05:20:33;;;;;;;15.00;11.38;;;;;;;;;;10290051;28;20501;-70
2022/11/04 05:25:32;;;;;;;16.40;10.70;;;;;;;;;;10281820;28;20084;-69
2022/11/04 05:30:31;;;;;;;17.65;11.15;;;;;;;;;;10278867;28;20323;-69
2022/11/04 05:35:30;;;;;;;25.00;10.77;;;;;;;;;;10289219;28;20083;-67
2022/11/04 05:40:28;;;;;;;17.67;12.27;;;;;;;;;;10277055;28;20064;-70
2022/11/04 05:45:26;;;;;;;21.88;12.30;;;;;;;;;;10266771;28;20091;-69
2022/11/04 05:50:26;;;;;;;14.82;10.68;;;;;;;;;;10278028;28;20071;-69
2022/11/04 05:55:24;;;;;;;18.42;11.63;;;;;;;;;;10279619;28;20522;-70
2022/11/04 06:00:22;;;;;;;24.40;14.15;;;;;;;;;;10279163;28;20099;-69
2022/11/04 06:05:20;;;;;;;17.10;13.00;;;;;;;;;;10277752;28;20072;-69
2022/11/04 06:10:20;;;;;;;31.75;13.27;;;;;;;;;;10279920;28;20569;-71
2022/11/04 06:15:18;;;;;;;25.13;14.30;;;;;;;;;;10289567;28;20056;-70
2022/11/04 06:20:16;;;;;;;29.92;15.45;;;;;;;;;;10300330;28;20505;-69
2022/11/04 06:25:15;;;;;;;24.52;16.17;;;;;;;;;;10276134;28;20078;-68
2022/11/04 06:30:15;;;;;;;19.23;12.38;;;;;;;;;;10288243;28;20123;-69
2022/11/04 06:35:13;;;;;;;22.73;14.23;;;;;;;;;;10280825;28;20040;-62
2022/11/04 06:40:11;;;;;;;20.23;13.95;;;;;;;;;;10275103;28;20509;-61
2022/11/04 06:45:10;;;;;;;17.13;11.55;;;;;;;;;;10276916;28;20088;-62
2022/11/04 06:50:10;;;;;;;17.40;10.60;;;;;;;;;;10272203;28;20103;-61
2022/11/04 06:55:09;;;;;;;27.05;15.98;;;;;;;;;;10286864;28;20080;-60
2022/11/04 07:00:08;;;;;;;34.67;18.38;;;;;;;;;;10288377;28;20072;-60
2022/11/04 07:05:07;;;;;;;28.95;15.75;;;;;;;;;;10284412;28;20095;-62
2022/11/04 07:10:07;;;;;;;23.73;16.75;;;;;;;;;;10282283;28;20083;-62
2022/11/04 07:15:06;;;;;;;26.27;18.45;;;;;;;;;;10299354;28;20080;-61
2022/11/04 07:20:05;;;;;;;35.55;20.50;;;;;;;;;;10293844;28;20071;-61
2022/11/04 07:25:04;;;;;;;33.80;20.05;;;;;;;;;;10290098;28;20076;-62
2022/11/04 07:30:03;;;;;;;32.75;20.30;;;;;;;;;;10294003;28;20471;-62
2022/11/04 07:35:02;;;;;;;35.55;16.48;;;;;;;;;;10289382;28;20085;-61
2022/11/04 07:40:00;;;;;;;35.83;17.75;;;;;;;;;;10278214;28;20041;-62
2022/11/04 07:44:58;;;;;;;41.28;18.58;;;;;;;;;;10287752;28;20095;-62
2022/11/04 07:49:57;;;;;;;25.80;17.45;;;;;;;;;;10274725;28;20056;-61
2022/11/04 07:54:56;;;;;;;26.15;17.35;;;;;;;;;;10280036;28;20517;-61
2022/11/04 07:59:54;;;;;;;35.47;16.85;;;;;;;;;;10283208;28;20166;-61
2022/11/04 08:04:52;;;;;;;26.17;14.73;;;;;;;;;;10286070;28;20093;-61
2022/11/04 08:09:52;;;;;;;32.85;15.88;;;;;;;;;;10285853;28;20079;-62
2022/11/04 08:14:50;;;;;;;25.73;14.65;;;;;;;;;;10286776;28;20072;-62
2022/11/04 08:19:48;;;;;;;30.08;16.23;;;;;;;;;;10287225;28;20056;-62
2022/11/04 08:24:47;;;;;;;58.72;19.55;;;;;;;;;;10292591;28;20108;-62
2022/11/04 08:29:46;;;;;;;32.35;16.90;;;;;;;;;;10292340;28;20510;-62
2022/11/04 08:34:45;;;;;;;30.83;14.45;;;;;;;;;;10279165;28;20091;-62
2022/11/04 08:39:43;;;;;;;19.17;13.52;;;;;;;;;;10286211;28;20053;-62
2022/11/04 08:44:41;;;;;;;36.75;14.57;;;;;;;;;;10292446;28;20087;-61
2022/11/04 08:49:41;;;;;;;24.38;14.30;;;;;;;;;;10291047;28;20071;-62
2022/11/04 08:54:39;;;;;;;23.50;12.68;;;;;;;;;;10276906;28;20049;-62
2022/11/04 08:59:38;;;;;;;23.10;13.18;;;;;;;;;;10291719;28;20490;-62
2022/11/04 09:04:36;;;;;;;29.92;14.52;;;;;;;;;;10276779;28;20041;-62
2022/11/04 09:09:35;;;;;;;25.70;15.15;;;;;;;;;;10277037;28;20072;-62
2022/11/04 09:14:33;;;;;;;23.13;13.90;;;;;;;;;;10290404;28;20045;-61
2022/11/04 09:19:32;;;;;;;28.63;15.00;;;;;;;;;;10276021;28;20056;-62
2022/11/04 09:24:30;;;;;;;29.95;14.65;;;;;;;;;;10275923;28;20045;-62
2022/11/04 09:29:32;;;;;;;20.58;13.00;;;;;;;;;;10276192;28;20072;-62
2022/11/04 09:34:31;;;;;;;26.77;15.45;;;;;;;;;;10282267;28;20515;-62
2022/11/04 09:39:29;;;;;;;27.90;12.90;;;;;;;;;;10289578;28;20048;-62
2022/11/04 09:44:28;;;;;;;26.75;13.80;;;;;;;;;;10289572;28;20254;-63
2022/11/04 09:49:29;;;;;;;23.85;12.10;;;;;;;;;;10275405;28;20076;-62
2022/11/04 09:54:32;;;;;;;25.30;12.43;;;;;;;;;;10289332;28;20285;-62
2022/11/04 09:59:32;;;;;;;18.30;12.07;;;;;;;;;;10275118;28;20072;-62
2022/11/04 10:04:40;;;;;;;24.50;12.93;;;;;;;;;;10276002;28;20533;-62
2022/11/04 10:09:47;;;;;;;19.75;11.73;;;;;;;;;;10289563;28;20075;-61
2022/11/04 10:15:03;;;;;;;17.70;10.95;;;;;;;;;;10288248;28;20068;-61
2022/11/04 10:20:17;;;;;;;23.88;10.88;;;;;;;;;;10274629;28;20122;-62
2022/11/04 10:25:16;;;;;;;19.02;12.23;;;;;;;;;;10288136;28;20045;-62
2022/11/04 10:30:15;;;;;;;20.73;11.27;;;;;;;;;;10276433;28;20511;-63
2022/11/04 10:35:19;;;;;;;20.00;11.15;;;;;;;;;;10275496;28;20455;-62
2022/11/04 10:40:20;;;;;;;15.43;10.60;;;;;;;;;;10282430;28;20052;-62
2022/11/04 10:45:20;;;;;;;18.15;10.07;;;;;;;;;;10281973;28;20064;-62
2022/11/04 10:50:30;;;;;;;21.83;9.35;;;;;;;;;;10296617;28;20072;-61
2022/11/04 10:55:33;;;;;;;17.23;10.38;;;;;;;;;;10296101;28;20045;-62
2022/11/04 11:00:38;;;;;;;14.93;10.25;;;;;;;;;;10281161;28;20047;-61
2022/11/04 11:05:38;;;;;;;14.95;10.15;;;;;;;;;;10300927;28;20086;-61
2022/11/04 11:10:37;;;;;;;20.52;8.88;;;;;;;;;;10284646;28;20072;-61
2022/11/04 11:15:36;;;;;;;14.75;11.77;;;;;;;;;;10280421;28;20065;-62
2022/11/04 11:20:36;;;;;;;21.05;11.52;;;;;;;;;;10293173;28;20069;-62
2022/11/04 11:25:41;;;;;;;15.25;10.02;;;;;;;;;;10281982;28;20037;-62
2022/11/04 11:30:53;;;;;;;12.75;9.60;;;;;;;;;;10288451;28;20526;-62
2022/11/04 11:35:53;;;;;;;19.52;9.50;;;;;;;;;;10289479;28;20067;-61
2022/11/04 11:40:53;;;;;;;14.10;9.50;;;;;;;;;;10281710;28;20037;-62
2022/11/04 11:46:12;;;;;;;23.02;10.05;;;;;;;;;;10311728;28;20072;-61
2022/11/04 11:51:12;;;;;;;26.25;10.27;;;;;;;;;;10281717;28;20079;-61
2022/11/04 11:56:18;;;;;;;12.55;9.38;;;;;;;;;;10287312;28;20068;-61
2022/11/04 12:01:18;;;;;;;20.17;10.25;;;;;;;;;;10286322;28;20072;-61
2022/11/04 12:06:28;;;;;;;16.30;10.75;;;;;;;;;;10284543;28;20076;-62
2022/11/04 12:11:37;;;;;;;21.13;9.23;;;;;;;;;;10280468;28;20517;-62
2022/11/04 12:16:40;;;;;;;14.27;8.77;;;;;;;;;;10286547;28;20060;-62
2022/11/04 12:21:40;;;;;;;20.55;9.13;;;;;;;;;;10316072;28;20041;-62
2022/11/04 12:26:44;;;;;;;16.25;9.85;;;;;;;;;;10282357;28;20068;-62
2022/11/04 12:31:50;;;;;;;20.08;10.13;;;;;;;;;;10288174;28;20072;-61
2022/11/04 12:36:56;;;;;;;15.82;9.43;;;;;;;;;;10282016;28;20418;-61
2022/11/04 12:42:01;;;;;;;13.88;9.18;;;;;;;;;;10282500;28;20060;-62
2022/11/04 12:47:25;;;;;;;16.23;8.60;;;;;;;;;;10290338;28;20206;-62
2022/11/04 12:52:34;;;;;;;20.10;10.98;;;;;;;;;;10281575;28;20068;-61
2022/11/04 12:57:37;;;;;;;18.63;11.35;;;;;;;;;;10278581;28;20076;-62
2022/11/04 13:02:39;;;;;;;17.83;10.52;;;;;;;;;;10278618;28;20077;-61
2022/11/04 13:07:40;;;;;;;20.83;11.52;;;;;;;;;;10277063;28;20076;-61
2022/11/04 13:12:41;;;;;;;16.17;10.63;;;;;;;;;;10280086;28;20072;-62
2022/11/04 13:17:40;;;;;;;18.25;12.23;;;;;;;;;;10282449;28;20064;-62
2022/11/04 13:22:39;;;;;;;21.15;12.15;;;;;;;;;;10276858;28;20045;-62
2022/11/04 13:27:43;;;;;;;18.67;11.88;;;;;;;;;;10287267;28;20163;-61
2022/11/04 13:32:47;;;;;;;21.05;11.43;;;;;;;;;;10277255;28;20088;-62
2022/11/04 13:37:50;;;;;;;17.97;12.40;;;;;;;;;;10289371;28;20437;-61
2022/11/04 13:48:25;;;;;;;19.42;12.38;;;;;;;;;;10287554;28;20084;-62
2022/11/04 13:53:40;;;;;;;19.00;14.00;;;;;;;;;;10288602;28;20483;-62
2022/11/04 13:58:38;;;;;;;21.23;12.95;;;;;;;;;;10273890;28;20041;-62
2022/11/04 14:04:01;;;;;;;26.67;16.60;;;;;;;;;;10285130;28;20068;-62
2022/11/04 14:08:59;;;;;;;;;;;;;;;;;;10291445;28;20081;-62
2022/11/04 14:14:15;;;;;;;22.35;13.27;;;;;;;;;;10274252;28;19959;-62
2022/11/04 14:19:32;;;;;;;17.42;9.70;;;;;;;;;;10283210;28;20514;-62
2022/11/04 14:24:32;;;;;;;23.50;16.17;;;;;;;;;;10289209;28;20055;-61
2022/11/04 14:29:31;;;;;;;21.08;12.75;;;;;;;;;;10287823;28;20126;-61
2022/11/04 14:34:32;;;;;;;22.02;13.07;;;;;;;;;;10273677;28;20045;-63
2022/11/04 14:39:34;;;;;;;16.48;11.25;;;;;;;;;;10289219;28;20068;-61
2022/11/04 14:44:34;;;;;;;20.90;11.88;;;;;;;;;;10288529;28;20471;-62
2022/11/04 14:49:40;;;;;;;23.80;10.65;;;;;;;;;;10288707;28;20064;-62
2022/11/04 14:54:39;;;;;;;21.17;11.73;;;;;;;;;;10273862;28;20041;-61
2022/11/04 14:59:38;;;;;;;20.63;11.07;;;;;;;;;;10279506;28;20045;-62
2022/11/04 15:04:36;;;;;;;16.83;11.13;;;;;;;;;;10272788;28;20056;-61
2022/11/04 15:09:39;;;;;;;22.02;11.20;;;;;;;;;;10273970;28;20473;-62
2022/11/04 15:14:39;;;;;;;20.77;12.98;;;;;;;;;;10278653;28;20064;-62
2022/11/04 15:19:37;;;;;;;26.10;13.50;;;;;;;;;;10285197;28;20272;-62
2022/11/04 15:24:35;;;;;;;26.70;13.90;;;;;;;;;;10280938;28;20471;-62
2022/11/04 15:29:34;;;;;;;21.95;13.30;;;;;;;;;;10292363;28;20065;-61
2022/11/04 15:34:35;;;;;;;20.45;13.10;;;;;;;;;;10293524;28;20076;-62
2022/11/04 15:39:34;;;;;;;24.13;13.30;;;;;;;;;;10279273;28;20072;-62
2022/11/04 15:44:34;;;;;;;18.85;11.43;;;;;;;;;;10283696;28;20076;-61
2022/11/04 15:49:34;;;;;;;19.25;10.40;;;;;;;;;;10277953;28;20080;-62
2022/11/04 15:54:35;;;;;;;23.17;12.07;;;;;;;;;;10280933;28;20075;-62
2022/11/04 15:59:34;;;;;;;17.30;10.90;;;;;;;;;;10277446;28;20056;-61
2022/11/04 16:04:34;;;;;;;12.82;10.00;;;;;;;;;;10278101;28;20066;-61
2022/11/04 16:09:44;;;;;;;20.80;12.70;;;;;;;;;;10279592;28;20083;-61
2022/11/04 16:14:49;;;;;;;14.55;11.10;;;;;;;;;;10281250;28;20162;-62
2022/11/04 16:19:50;;;;;;;18.23;11.43;;;;;;;;;;10293203;28;20060;-61
2022/11/04 16:24:49;;;;;;;22.80;11.60;;;;;;;;;;10280399;28;20068;-61
2022/11/04 16:29:55;;;;;;;13.73;8.60;;;;;;;;;;10284080;28;20068;-61
2022/11/04 16:34:57;;;;;;;12.75;9.55;;;;;;;;;;10280567;28;20080;-62
2022/11/04 16:39:55;;;;;;;25.45;12.90;;;;;;;;;;10273707;28;20068;-62
2022/11/04 16:44:57;;;;;;;20.73;12.55;;;;;;;;;;10282456;28;20102;-62
2022/11/04 16:49:58;;;;;;;17.48;12.55;;;;;;;;;;10300011;28;20536;-61
2022/11/04 16:54:57;;;;;;;27.30;16.50;;;;;;;;;;10287149;28;20105;-62
2022/11/04 16:59:56;;;;;;;27.77;16.90;;;;;;;;;;10297189;28;20067;-60
2022/11/04 17:04:54;;;;;;;28.70;17.52;;;;;;;;;;10289503;28;20478;-62
2022/11/04 17:09:54;;;;;;;24.52;15.70;;;;;;;;;;10293630;28;20077;-61
2022/11/04 17:14:53;;;;;;;22.33;13.63;;;;;;;;;;10275493;28;20426;-62
2022/11/04 17:19:51;;;;;;;23.45;13.93;;;;;;;;;;10297342;28;20041;-62
2022/11/04 17:24:49;;;;;;;23.60;15.13;;;;;;;;;;10275418;28;20091;-60
2022/11/04 17:29:49;;;;;;;20.13;13.98;;;;;;;;;;10273806;28;20091;-62
2022/11/04 17:34:47;;;;;;;25.48;14.13;;;;;;;;;;10277781;28;20079;-62
2022/11/04 17:39:45;;;;;;;22.95;16.33;;;;;;;;;;10274835;28;20068;-61
2022/11/04 17:44:43;;;;;;;24.33;17.23;;;;;;;;;;10276190;28;20083;-62
2022/11/04 17:49:43;;;;;;;20.02;15.27;;;;;;;;;;10275793;28;20107;-62
2022/11/04 17:54:41;;;;;;;23.90;15.40;;;;;;;;;;10305878;28;20064;-62
2022/11/04 17:59:39;;;;;;;26.83;17.17;;;;;;;;;;10282540;28;20083;-62
2022/11/04 18:04:38;;;;;;;29.58;17.58;;;;;;;;;;10283956;28;20045;-61
2022/11/04 18:09:38;;;;;;;25.75;17.70;;;;;;;;;;10274165;28;20083;-62
2022/11/04 18:14:36;;;;;;;21.95;16.10;;;;;;;;;;10278948;28;20072;-62
2022/11/04 18:19:34;;;;;;;25.92;17.95;;;;;;;;;;10280005;28;20494;-62
2022/11/04 18:24:33;;;;;;;30.77;16.25;;;;;;;;;;10288332;28;20083;-61
2022/11/04 18:29:32;;;;;;;22.45;16.55;;;;;;;;;;10272306;28;20068;-62
2022/11/04 18:34:31;;;;;;;23.88;15.73;;;;;;;;;;10271960;28;20546;-62
2022/11/04 18:39:29;;;;;;;23.35;15.00;;;;;;;;;;10277606;28;20057;-61
2022/11/04 18:44:27;;;;;;;21.60;16.27;;;;;;;;;;10275424;28;20549;-61
2022/11/04 18:49:27;;;;;;;28.42;14.95;;;;;;;;;;10277026;28;20144;-61
2022/11/04 18:54:25;;;;;;;21.17;15.85;;;;;;;;;;10279867;28;20482;-61
2022/11/04 18:59:24;;;;;;;24.45;15.93;;;;;;;;;;10279278;28;20533;-62
2022/11/04 19:04:22;;;;;;;21.88;15.02;;;;;;;;;;10282529;28;20513;-62
2022/11/04 19:09:21;;;;;;;23.08;15.00;;;;;;;;;;10280838;28;20037;-62
2022/11/04 19:14:40;;;;;;;26.38;14.30;;;;;;;;;;10319566;28;20099;-62
2022/11/04 19:19:39;;;;;;;20.52;16.00;;;;;;;;;;10294683;28;20080;-62
2022/11/04 19:24:39;;;;;;;25.95;15.05;;;;;;;;;;10293113;28;20077;-62
2022/11/04 19:29:38;;;;;;;22.25;16.02;;;;;;;;;;10280032;28;20077;-62
2022/11/04 19:34:37;;;;;;;20.23;14.05;;;;;;;;;;10280557;28;20084;-62
2022/11/04 19:39:35;;;;;;;25.98;14.90;;;;;;;;;;10291466;28;20471;-61
2022/11/04 19:44:35;;;;;;;22.55;14.57;;;;;;;;;;10280929;28;20052;-62
2022/11/04 19:49:33;;;;;;;24.42;16.02;;;;;;;;;;10280079;28;20079;-63
2022/11/04 19:54:31;;;;;;;27.10;19.23;;;;;;;;;;10279327;28;20095;-60
2022/11/04 19:59:30;;;;;;;30.30;20.88;;;;;;;;;;10278803;28;20041;-62
2022/11/04 20:04:29;;;;;;;30.08;22.08;;;;;;;;;;10279393;28;20474;-62
2022/11/04 20:09:27;;;;;;;33.35;21.83;;;;;;;;;;10281799;28;20543;-62
2022/11/04 20:14:26;;;;;;;33.45;23.10;;;;;;;;;;10300777;28;20072;-62
2022/11/04 20:19:25;;;;;;;33.00;22.85;;;;;;;;;;10296553;28;20513;-61
2022/11/04 20:24:24;;;;;;;36.17;21.38;;;;;;;;;;10280838;28;20057;-62
2022/11/04 20:29:23;;;;;;;32.10;23.63;;;;;;;;;;10284621;28;20073;-61
2022/11/04 20:34:21;;;;;;;31.17;24.55;;;;;;;;;;10283668;28;20520;-61
2022/11/04 20:39:20;;;;;;;31.65;23.52;;;;;;;;;;10281072;28;20060;-62
2022/11/04 20:44:20;;;;;;;32.33;23.33;;;;;;;;;;10277770;28;20064;-62
2022/11/04 20:49:19;;;;;;;28.27;21.98;;;;;;;;;;10276882;28;21024;-63
2022/11/04 20:54:17;;;;;;;30.48;21.35;;;;;;;;;;10277295;28;20087;-62
2022/11/04 20:59:17;;;;;;;35.25;21.98;;;;;;;;;;10277365;28;20073;-61
2022/11/04 21:04:18;;;;;;;32.65;22.10;;;;;;;;;;10276871;28;20071;-62
2022/11/04 21:09:17;;;;;;;33.17;22.15;;;;;;;;;;10276427;28;20525;-62
2022/11/04 21:14:18;;;;;;;26.40;20.58;;;;;;;;;;10310170;28;20458;-61
2022/11/04 21:19:20;;;;;;;28.33;19.42;;;;;;;;;;10275752;28;20657;-62
2022/11/04 21:24:18;;;;;;;30.60;20.73;;;;;;;;;;10274544;28;20049;-61
2022/11/04 21:29:19;;;;;;;24.63;20.15;;;;;;;;;;10276068;28;20044;-62
2022/11/04 21:34:19;;;;;;;26.73;21.70;;;;;;;;;;10273819;28;20088;-61
2022/11/04 21:39:17;;;;;;;33.03;22.75;;;;;;;;;;10278248;28;20059;-62
2022/11/04 21:44:15;;;;;;;27.55;20.33;;;;;;;;;;10274999;28;20064;-62
2022/11/04 21:49:13;;;;;;;27.45;18.85;;;;;;;;;;10274472;28;20124;-61
2022/11/04 21:54:13;;;;;;;27.75;17.02;;;;;;;;;;10274951;28;20080;-62
2022/11/04 21:59:11;;;;;;;23.73;16.88;;;;;;;;;;10278042;28;20577;-63
2022/11/04 22:04:15;;;;;;;23.70;17.00;;;;;;;;;;10296030;28;20029;-61
2022/11/04 22:09:15;;;;;;;23.30;15.98;;;;;;;;;;10273832;28;20072;-61
2022/11/04 22:14:13;;;;;;;25.63;16.80;;;;;;;;;;10285264;28;20072;-62
2022/11/04 22:19:13;;;;;;;24.40;16.90;;;;;;;;;;10290881;28;20501;-61
2022/11/04 22:24:12;;;;;;;20.85;17.48;;;;;;;;;;10278232;28;20077;-62
2022/11/04 22:29:11;;;;;;;23.27;18.95;;;;;;;;;;10302397;28;21427;-62
2022/11/04 22:34:10;;;;;;;24.55;18.30;;;;;;;;;;10296694;28;20076;-62
2022/11/04 22:39:10;;;;;;;24.05;17.25;;;;;;;;;;10273314;28;20067;-62
2022/11/04 22:44:15;;;;;;;27.05;16.23;;;;;;;;;;10292378;28;20041;-60
2022/11/04 22:49:13;;;;;;;20.17;14.80;;;;;;;;;;10316275;28;20075;-62
2022/11/04 22:54:11;;;;;;;23.17;14.70;;;;;;;;;;10290652;28;20108;-62
2022/11/04 22:59:10;;;;;;;19.50;13.23;;;;;;;;;;10295626;28;20073;-62
2022/11/04 23:04:11;;;;;;;18.77;12.75;;;;;;;;;;10297286;28;20052;-62
2022/11/04 23:09:10;;;;;;;15.75;12.75;;;;;;;;;;10282017;28;20438;-62
2022/11/04 23:19:27;;;;;;;17.48;13.60;;;;;;;;;;10282067;28;20081;-61
2022/11/04 23:40:16;;;;;;;31.02;15.82;;;;;;;;;;10281880;28;20061;-62
